DLH4RP EDDF-EDDV
Flight info
| Callsign | DLH4RP |
|---|---|
| Flight time | 0h 34m |
| Altitude | 24000 |
| Route | MARUN8M/25C MARUN Y153 WRB WRB9P |
| Aircraft | A319/M-SDE2E3FGILORWXYZ/HB1 |
Departure
| Time | 2026-05-06 15:23 |
|---|---|
| Airport | Frankfurt Main Airport (EDDF) |
Arrival
| Time | 2026-05-06 15:58 |
|---|---|
| Airport | Hannover Airport (EDDV) |
| Time | Latitude | Longitude | Altitude | Speed | Heading |
|---|---|---|---|---|---|
| 2026-05-06 14:45 | 50.04676 | 8.56058 | 359 ft | 0 kts | 321° |
| 2026-05-06 15:08 | 50.04674 | 8.56060 | 356 ft | 2 kts | 321° |
| 2026-05-06 15:08 | 50.04663 | 8.56072 | 363 ft | 2 kts | 353° |
| 2026-05-06 15:09 | 50.04650 | 8.56073 | 360 ft | 2 kts | 335° |
| 2026-05-06 15:09 | 50.04636 | 8.56089 | 363 ft | 3 kts | 296° |
| 2026-05-06 15:09 | 50.04628 | 8.56114 | 356 ft | 3 kts | 296° |
| 2026-05-06 15:09 | 50.04620 | 8.56139 | 360 ft | 3 kts | 296° |
| 2026-05-06 15:10 | 50.04612 | 8.56163 | 362 ft | 2 kts | 296° |
| 2026-05-06 15:10 | 50.04608 | 8.56189 | 361 ft | 2 kts | 258° |
| 2026-05-06 15:10 | 50.04609 | 8.56197 | 361 ft | 0 kts | 245° |
| 2026-05-06 15:12 | 50.04607 | 8.56193 | 361 ft | 2 kts | 245° |
| 2026-05-06 15:12 | 50.04592 | 8.56138 | 357 ft | 9 kts | 247° |
| 2026-05-06 15:12 | 50.04571 | 8.56056 | 356 ft | 7 kts | 250° |
| 2026-05-06 15:12 | 50.04556 | 8.55992 | 361 ft | 5 kts | 248° |
| 2026-05-06 15:13 | 50.04529 | 8.55957 | 358 ft | 7 kts | 203° |
| 2026-05-06 15:13 | 50.04477 | 8.55935 | 359 ft | 7 kts | 195° |
| 2026-05-06 15:13 | 50.04437 | 8.55918 | 357 ft | 6 kts | 195° |
| 2026-05-06 15:13 | 50.04383 | 8.55908 | 356 ft | 11 kts | 172° |
| 2026-05-06 15:14 | 50.04303 | 8.55953 | 356 ft | 12 kts | 159° |
| 2026-05-06 15:14 | 50.04230 | 8.55934 | 356 ft | 10 kts | 211° |
| 2026-05-06 15:14 | 50.04162 | 8.55932 | 356 ft | 10 kts | 159° |
| 2026-05-06 15:14 | 50.04105 | 8.55967 | 354 ft | 8 kts | 158° |
| 2026-05-06 15:15 | 50.04070 | 8.56042 | 352 ft | 11 kts | 82° |
| 2026-05-06 15:15 | 50.04104 | 8.56174 | 357 ft | 15 kts | 70° |
| 2026-05-06 15:15 | 50.04145 | 8.56346 | 357 ft | 19 kts | 69° |
| 2026-05-06 15:15 | 50.04193 | 8.56546 | 359 ft | 19 kts | 69° |
| 2026-05-06 15:16 | 50.04234 | 8.56719 | 359 ft | 15 kts | 70° |
| 2026-05-06 15:16 | 50.04263 | 8.56845 | 363 ft | 11 kts | 70° |
| 2026-05-06 15:16 | 50.04293 | 8.56970 | 361 ft | 13 kts | 69° |
| 2026-05-06 15:16 | 50.04326 | 8.57109 | 361 ft | 14 kts | 69° |
| 2026-05-06 15:17 | 50.04363 | 8.57265 | 364 ft | 17 kts | 70° |
| 2026-05-06 15:17 | 50.04405 | 8.57442 | 363 ft | 17 kts | 69° |
| 2026-05-06 15:17 | 50.04443 | 8.57602 | 370 ft | 14 kts | 69° |
| 2026-05-06 15:17 | 50.04477 | 8.57747 | 366 ft | 16 kts | 69° |
| 2026-05-06 15:18 | 50.04519 | 8.57919 | 368 ft | 18 kts | 70° |
| 2026-05-06 15:18 | 50.04568 | 8.58124 | 364 ft | 21 kts | 70° |
| 2026-05-06 15:18 | 50.04613 | 8.58315 | 368 ft | 17 kts | 70° |
| 2026-05-06 15:18 | 50.04652 | 8.58478 | 369 ft | 15 kts | 69° |
| 2026-05-06 15:19 | 50.04625 | 8.58572 | 369 ft | 10 kts | 155° |
| 2026-05-06 15:19 | 50.04591 | 8.58592 | 371 ft | 0 kts | 159° |
| 2026-05-06 15:21 | 50.04579 | 8.58599 | 370 ft | 6 kts | 159° |
| 2026-05-06 15:22 | 50.04553 | 8.58614 | 371 ft | 2 kts | 159° |
| 2026-05-06 15:22 | 50.04504 | 8.58616 | 371 ft | 11 kts | 208° |
| 2026-05-06 15:22 | 50.04471 | 8.58525 | 370 ft | 6 kts | 250° |
| 2026-05-06 15:22 | 50.04470 | 8.58520 | 370 ft | 0 kts | 250° |
| 2026-05-06 15:23 | 50.04463 | 8.58490 | 371 ft | 12 kts | 250° |
| 2026-05-06 15:23 | 50.04331 | 8.57922 | 364 ft | 101 kts | 250° |
| 2026-05-06 15:23 | 50.04005 | 8.56546 | 472 ft | 157 kts | 252° |
| 2026-05-06 15:23 | 50.03607 | 8.54950 | 1289 ft | 160 kts | 250° |
| 2026-05-06 15:24 | 50.03213 | 8.53315 | 2056 ft | 166 kts | 252° |
| 2026-05-06 15:24 | 50.02941 | 8.52158 | 2367 ft | 177 kts | 251° |
| 2026-05-06 15:24 | 50.02400 | 8.50339 | 2773 ft | 196 kts | 232° |
| 2026-05-06 15:24 | 50.01217 | 8.49170 | 3269 ft | 210 kts | 199° |
| 2026-05-06 15:25 | 49.99852 | 8.48649 | 4352 ft | 201 kts | 196° |
| 2026-05-06 15:25 | 49.98477 | 8.48138 | 5174 ft | 206 kts | 195° |
| 2026-05-06 15:25 | 49.97077 | 8.47619 | 6074 ft | 207 kts | 197° |
| 2026-05-06 15:25 | 49.95659 | 8.47010 | 6611 ft | 219 kts | 198° |
| 2026-05-06 15:26 | 49.94112 | 8.46279 | 6756 ft | 240 kts | 199° |
| 2026-05-06 15:26 | 49.92501 | 8.45495 | 6775 ft | 244 kts | 200° |
| 2026-05-06 15:26 | 49.91063 | 8.44170 | 6782 ft | 241 kts | 227° |
| 2026-05-06 15:26 | 49.90241 | 8.41931 | 6798 ft | 242 kts | 255° |
| 2026-05-06 15:27 | 49.90276 | 8.39311 | 7055 ft | 254 kts | 286° |
| 2026-05-06 15:27 | 49.91215 | 8.36991 | 8105 ft | 260 kts | 315° |
| 2026-05-06 15:27 | 49.92808 | 8.35511 | 8910 ft | 279 kts | 333° |
| 2026-05-06 15:27 | 49.94626 | 8.34273 | 9667 ft | 290 kts | 335° |
| 2026-05-06 15:28 | 49.96526 | 8.33037 | 10257 ft | 307 kts | 335° |
| 2026-05-06 15:28 | 49.98569 | 8.31721 | 10635 ft | 328 kts | 335° |
| 2026-05-06 15:28 | 50.00682 | 8.30362 | 11311 ft | 336 kts | 335° |
| 2026-05-06 15:28 | 50.02920 | 8.29229 | 12094 ft | 343 kts | 346° |
| 2026-05-06 15:29 | 50.05311 | 8.28868 | 12948 ft | 350 kts | 359° |
| 2026-05-06 15:29 | 50.07742 | 8.29345 | 13792 ft | 357 kts | 12° |
| 2026-05-06 15:29 | 50.10137 | 8.30535 | 14528 ft | 362 kts | 18° |
| 2026-05-06 15:29 | 50.12530 | 8.31799 | 15218 ft | 366 kts | 18° |
| 2026-05-06 15:30 | 50.14962 | 8.33080 | 15894 ft | 370 kts | 18° |
| 2026-05-06 15:30 | 50.17411 | 8.34366 | 16572 ft | 374 kts | 18° |
| 2026-05-06 15:30 | 50.19894 | 8.35666 | 17236 ft | 378 kts | 18° |
| 2026-05-06 15:30 | 50.22411 | 8.36988 | 17918 ft | 383 kts | 18° |
| 2026-05-06 15:31 | 50.24947 | 8.38322 | 18520 ft | 387 kts | 18° |
| 2026-05-06 15:31 | 50.27509 | 8.39670 | 19120 ft | 390 kts | 18° |
| 2026-05-06 15:31 | 50.30095 | 8.41034 | 19749 ft | 393 kts | 18° |
| 2026-05-06 15:32 | 50.35306 | 8.43852 | 20950 ft | 399 kts | 18° |
| 2026-05-06 15:32 | 50.37905 | 8.45281 | 21546 ft | 402 kts | 18° |
| 2026-05-06 15:32 | 50.40555 | 8.46735 | 22134 ft | 406 kts | 18° |
| 2026-05-06 15:32 | 50.43227 | 8.48202 | 22720 ft | 409 kts | 17° |
| 2026-05-06 15:33 | 50.45933 | 8.49691 | 23307 ft | 413 kts | 17° |
| 2026-05-06 15:33 | 50.48660 | 8.51171 | 23665 ft | 416 kts | 16° |
| 2026-05-06 15:33 | 50.51412 | 8.52560 | 23766 ft | 413 kts | 15° |
| 2026-05-06 15:33 | 50.54117 | 8.53850 | 23782 ft | 403 kts | 14° |
| 2026-05-06 15:34 | 50.56803 | 8.55092 | 23781 ft | 401 kts | 14° |
| 2026-05-06 15:34 | 50.59484 | 8.56322 | 23782 ft | 401 kts | 14° |
| 2026-05-06 15:34 | 50.62192 | 8.57581 | 23784 ft | 401 kts | 14° |
| 2026-05-06 15:34 | 50.64826 | 8.58829 | 23780 ft | 401 kts | 14° |
| 2026-05-06 15:35 | 50.67504 | 8.60112 | 23780 ft | 402 kts | 14° |
| 2026-05-06 15:35 | 50.70177 | 8.61406 | 23780 ft | 402 kts | 14° |
| 2026-05-06 15:35 | 50.72862 | 8.62711 | 23780 ft | 403 kts | 14° |
| 2026-05-06 15:35 | 50.75546 | 8.64015 | 23774 ft | 403 kts | 14° |
| 2026-05-06 15:36 | 50.78230 | 8.65314 | 23774 ft | 404 kts | 14° |
| 2026-05-06 15:36 | 50.80916 | 8.66611 | 23775 ft | 404 kts | 14° |
| 2026-05-06 15:36 | 50.83594 | 8.67981 | 23774 ft | 405 kts | 17° |
| 2026-05-06 15:36 | 50.86236 | 8.69530 | 23774 ft | 405 kts | 19° |
| 2026-05-06 15:37 | 50.88846 | 8.71200 | 23780 ft | 406 kts | 20° |
| 2026-05-06 15:37 | 50.91454 | 8.72936 | 23781 ft | 406 kts | 20° |
| 2026-05-06 15:37 | 50.94056 | 8.74675 | 23776 ft | 406 kts | 20° |
| 2026-05-06 15:37 | 50.96665 | 8.76397 | 23777 ft | 406 kts | 20° |
| 2026-05-06 15:38 | 50.99282 | 8.78091 | 23785 ft | 406 kts | 20° |
| 2026-05-06 15:38 | 51.01907 | 8.79768 | 23787 ft | 406 kts | 19° |
| 2026-05-06 15:38 | 51.04533 | 8.81423 | 23791 ft | 406 kts | 18° |
| 2026-05-06 15:38 | 51.07248 | 8.82560 | 23795 ft | 403 kts | 10° |
| 2026-05-06 15:39 | 51.09984 | 8.83538 | 23799 ft | 403 kts | 10° |
| 2026-05-06 15:39 | 51.12723 | 8.84524 | 23802 ft | 403 kts | 10° |
| 2026-05-06 15:39 | 51.15463 | 8.85517 | 23809 ft | 403 kts | 11° |
| 2026-05-06 15:39 | 51.18161 | 8.86497 | 23809 ft | 403 kts | 11° |
| 2026-05-06 15:40 | 51.20896 | 8.87489 | 23813 ft | 403 kts | 11° |
| 2026-05-06 15:40 | 51.23630 | 8.88478 | 23818 ft | 403 kts | 11° |
| 2026-05-06 15:40 | 51.26358 | 8.89468 | 23793 ft | 401 kts | 11° |
| 2026-05-06 15:40 | 51.29092 | 8.90461 | 23555 ft | 394 kts | 11° |
| 2026-05-06 15:41 | 51.31711 | 8.91417 | 23315 ft | 389 kts | 11° |
| 2026-05-06 15:41 | 51.34343 | 8.92393 | 23036 ft | 387 kts | 11° |
| 2026-05-06 15:41 | 51.36958 | 8.93378 | 22762 ft | 385 kts | 12° |
| 2026-05-06 15:41 | 51.39555 | 8.94362 | 22485 ft | 383 kts | 12° |
| 2026-05-06 15:42 | 51.42140 | 8.95343 | 22210 ft | 381 kts | 12° |
| 2026-05-06 15:42 | 51.44721 | 8.96319 | 21966 ft | 380 kts | 12° |
| 2026-05-06 15:42 | 51.47285 | 8.97290 | 21698 ft | 378 kts | 12° |
| 2026-05-06 15:42 | 51.49839 | 8.98258 | 21439 ft | 376 kts | 12° |
| 2026-05-06 15:43 | 51.52383 | 8.99218 | 21178 ft | 375 kts | 12° |
| 2026-05-06 15:43 | 51.54910 | 9.00176 | 20855 ft | 370 kts | 12° |
| 2026-05-06 15:43 | 51.57407 | 9.01136 | 20408 ft | 368 kts | 12° |
| 2026-05-06 15:43 | 51.59889 | 9.02098 | 19962 ft | 366 kts | 12° |
| 2026-05-06 15:44 | 51.62361 | 9.03059 | 19520 ft | 365 kts | 12° |
| 2026-05-06 15:44 | 51.64828 | 9.04016 | 19076 ft | 364 kts | 12° |
| 2026-05-06 15:44 | 51.67285 | 9.04968 | 18632 ft | 363 kts | 11° |
| 2026-05-06 15:44 | 51.69739 | 9.05920 | 18192 ft | 362 kts | 11° |
| 2026-05-06 15:45 | 51.72187 | 9.06872 | 17712 ft | 361 kts | 11° |
| 2026-05-06 15:45 | 51.74625 | 9.07818 | 17286 ft | 359 kts | 11° |
| 2026-05-06 15:45 | 51.77023 | 9.08749 | 17009 ft | 352 kts | 11° |
| 2026-05-06 15:45 | 51.79372 | 9.09664 | 16596 ft | 350 kts | 12° |
| 2026-05-06 15:46 | 51.81745 | 9.10590 | 16171 ft | 350 kts | 11° |
| 2026-05-06 15:46 | 51.84117 | 9.11515 | 15744 ft | 350 kts | 12° |
| 2026-05-06 15:46 | 51.86485 | 9.12440 | 15329 ft | 351 kts | 12° |
| 2026-05-06 15:46 | 51.88868 | 9.13370 | 14897 ft | 353 kts | 12° |
| 2026-05-06 15:47 | 51.91261 | 9.14304 | 14463 ft | 354 kts | 12° |
| 2026-05-06 15:47 | 51.93656 | 9.15241 | 14035 ft | 353 kts | 12° |
| 2026-05-06 15:47 | 51.96038 | 9.16176 | 13596 ft | 352 kts | 12° |
| 2026-05-06 15:47 | 51.98420 | 9.17112 | 13130 ft | 352 kts | 12° |
| 2026-05-06 15:48 | 52.00795 | 9.18045 | 12681 ft | 349 kts | 12° |
| 2026-05-06 15:48 | 52.03147 | 9.18974 | 12245 ft | 348 kts | 12° |
| 2026-05-06 15:48 | 52.05505 | 9.19904 | 11792 ft | 348 kts | 12° |
| 2026-05-06 15:48 | 52.07862 | 9.20832 | 11340 ft | 349 kts | 11° |
| 2026-05-06 15:49 | 52.10219 | 9.21757 | 10910 ft | 348 kts | 11° |
| 2026-05-06 15:49 | 52.12569 | 9.22683 | 10451 ft | 346 kts | 12° |
| 2026-05-06 15:49 | 52.14889 | 9.23603 | 10180 ft | 339 kts | 12° |
| 2026-05-06 15:49 | 52.17146 | 9.24503 | 10057 ft | 327 kts | 12° |
| 2026-05-06 15:50 | 52.19320 | 9.25367 | 9932 ft | 316 kts | 11° |
| 2026-05-06 15:50 | 52.21429 | 9.26204 | 9720 ft | 310 kts | 11° |
| 2026-05-06 15:50 | 52.23515 | 9.27021 | 9356 ft | 306 kts | 10° |
| 2026-05-06 15:50 | 52.25593 | 9.27693 | 8978 ft | 303 kts | 8° |
| 2026-05-06 15:51 | 52.27667 | 9.28248 | 8605 ft | 300 kts | 7° |
| 2026-05-06 15:51 | 52.29713 | 9.28754 | 8164 ft | 296 kts | 7° |
| 2026-05-06 15:51 | 52.31735 | 9.29250 | 7600 ft | 292 kts | 7° |
| 2026-05-06 15:51 | 52.33730 | 9.29746 | 7030 ft | 288 kts | 7° |
| 2026-05-06 15:52 | 52.35715 | 9.30250 | 6610 ft | 286 kts | 8° |
| 2026-05-06 15:52 | 52.37635 | 9.30747 | 6481 ft | 272 kts | 8° |
| 2026-05-06 15:52 | 52.39448 | 9.31224 | 6260 ft | 258 kts | 9° |
| 2026-05-06 15:52 | 52.41227 | 9.31695 | 5600 ft | 260 kts | 10° |
| 2026-05-06 15:53 | 52.43026 | 9.32174 | 4911 ft | 263 kts | 10° |
| 2026-05-06 15:53 | 52.44778 | 9.32909 | 4394 ft | 257 kts | 28° |
| 2026-05-06 15:53 | 52.45976 | 9.34879 | 4130 ft | 241 kts | 67° |
| 2026-05-06 15:53 | 52.46285 | 9.37509 | 3862 ft | 234 kts | 89° |
| 2026-05-06 15:54 | 52.46238 | 9.40157 | 3562 ft | 230 kts | 93° |
| 2026-05-06 15:54 | 52.46156 | 9.42750 | 3257 ft | 226 kts | 92° |
| 2026-05-06 15:54 | 52.46087 | 9.45302 | 2949 ft | 221 kts | 91° |
| 2026-05-06 15:54 | 52.46023 | 9.47787 | 2648 ft | 214 kts | 91° |
| 2026-05-06 15:55 | 52.45962 | 9.50148 | 2368 ft | 200 kts | 90° |
| 2026-05-06 15:55 | 52.45905 | 9.52352 | 2098 ft | 187 kts | 90° |
| 2026-05-06 15:55 | 52.45852 | 9.54384 | 1863 ft | 172 kts | 90° |
| 2026-05-06 15:55 | 52.45803 | 9.56235 | 1634 ft | 158 kts | 89° |
| 2026-05-06 15:56 | 52.45757 | 9.57991 | 1416 ft | 147 kts | 90° |
| 2026-05-06 15:56 | 52.45713 | 9.59594 | 1211 ft | 139 kts | 89° |
| 2026-05-06 15:56 | 52.45681 | 9.61140 | 1026 ft | 135 kts | 90° |
| 2026-05-06 15:56 | 52.45660 | 9.62667 | 866 ft | 134 kts | 89° |
| 2026-05-06 15:57 | 52.45605 | 9.64202 | 738 ft | 136 kts | 92° |
| 2026-05-06 15:57 | 52.45552 | 9.65741 | 549 ft | 134 kts | 89° |
| 2026-05-06 15:57 | 52.45507 | 9.67286 | 357 ft | 137 kts | 90° |
| 2026-05-06 15:57 | 52.45472 | 9.68803 | 184 ft | 122 kts | 91° |
| 2026-05-06 15:58 | 52.45437 | 9.69913 | 182 ft | 72 kts | 92° |
| 2026-05-06 15:58 | 52.45420 | 9.70452 | 183 ft | 23 kts | 92° |
| 2026-05-06 15:58 | 52.45418 | 9.70554 | 183 ft | 4 kts | 92° |
| 2026-05-06 15:58 | 52.45418 | 9.70564 | 183 ft | 0 kts | 92° |
| 2026-05-06 15:59 | 52.45417 | 9.70599 | 183 ft | 7 kts | 92° |
| 2026-05-06 15:59 | 52.45435 | 9.70688 | 183 ft | 1 kts | 13° |
| 2026-05-06 15:59 | 52.45455 | 9.70678 | 182 ft | 6 kts | 347° |
| 2026-05-06 16:00 | 52.45508 | 9.70671 | 179 ft | 9 kts | 359° |
| 2026-05-06 16:00 | 52.45565 | 9.70653 | 179 ft | 9 kts | 323° |
| 2026-05-06 16:00 | 52.45582 | 9.70524 | 179 ft | 13 kts | 272° |
| 2026-05-06 16:00 | 52.45586 | 9.70387 | 179 ft | 11 kts | 273° |
| 2026-05-06 16:01 | 52.45590 | 9.70247 | 179 ft | 17 kts | 272° |
| 2026-05-06 16:01 | 52.45596 | 9.70016 | 179 ft | 20 kts | 273° |
| 2026-05-06 16:01 | 52.45615 | 9.69848 | 179 ft | 12 kts | 315° |
| 2026-05-06 16:01 | 52.45668 | 9.69794 | 179 ft | 7 kts | 297° |
| 2026-05-06 16:02 | 52.45673 | 9.69708 | 179 ft | 7 kts | 273° |
| 2026-05-06 16:02 | 52.45675 | 9.69641 | 179 ft | 5 kts | 272° |
| 2026-05-06 16:02 | 52.45681 | 9.69529 | 179 ft | 11 kts | 288° |
| 2026-05-06 16:02 | 52.45731 | 9.69469 | 179 ft | 7 kts | 330° |
| 2026-05-06 16:03 | 52.45758 | 9.69381 | 179 ft | 12 kts | 277° |
| 2026-05-06 16:03 | 52.45783 | 9.69321 | 179 ft | 4 kts | 9° |
| 2026-05-06 16:03 | 52.45806 | 9.69299 | 179 ft | 5 kts | 322° |
| 2026-05-06 16:03 | 52.45825 | 9.69295 | 179 ft | 2 kts | 8° |
| 2026-05-06 16:04 | 52.45838 | 9.69310 | 179 ft | 2 kts | 37° |
| 2026-05-06 16:04 | 52.45847 | 9.69324 | 179 ft | 0 kts | 48° |